Sioux Lookout, Canada
Current Conditions -  °F | °C
As of 2:00 AM on Saturday 20 Dec 2014 (Local Time) from CYXL Reporting Station
Light Snow Light Snow  
Wind Chill: 15°   Ceiling: 500
Heat Index: 21°   Visibility: 4mi
Dew Point: 21°   Wind: 5mph
Humidity: 100%   Direction: 160°SSE
Pressure: 30.08"   Gusts: NA
Location:  50.1°N, 91.92°W
Report Text: CYXL 200800Z 16004KT 4SM -SN OVC005 M06/M06 A3008 RMK SC8 SLP214
Loading
Personal Weather Stations






























Interactive Weather Map New forecast layout! Learn more

10-Day Weather Forecast

Advertisements
Track Severe Weather on mobile